Terminal Aerodrome Forecast
Issued by NWS Chicago, IL

Home | Current Version | Previous Version | Text Only | Print | Product List | Glossary Off
Versions: 1 2 3 4 5 6 7 8 9 10 11 12 13 14 15 16 17 18 19 20 21 22 23 24 25 26

000
FTUS43 KLOT 080758 AAA
TAFRFD
TAF AMD
KRFD 080758Z 0808/0906 27010KT P6SM -SHSN BKN013 BKN070
      TEMPO 0810/0814 2SM -SHSN OVC015
     FM081500 29011KT P6SM -SHSN OVC020
     FM082200 32012G20KT 3SM -SN BR OVC018=

USA.gov is the U.S. government's official web portal to all federal, state and local government web resources and services.